Time,TemperatureF,DewpointF,PressureIn,WindDirection,WindDirectionDegrees,WindSpeedMPH,WindSpeedGustMPH,Humidity,HourlyPrecipIn,Conditions,Clouds,dailyrainin,SoftwareType,DateUTC
2013-09-20 00:13:00,44.1,34.2,29.84,SSE,157,0.0,-999.0,68,-99.99,,,0.00,Acu-Link.com,2013-09-20 07:13:00,
2013-09-20 00:28:00,43.5,34.0,29.84,SSE,157,0.0,-999.0,69,-99.99,,,0.00,Acu-Link.com,2013-09-20 07:28:00,
2013-09-20 00:43:00,43.2,34.1,29.84,SSE,157,0.0,-999.0,70,-99.99,,,0.00,Acu-Link.com,2013-09-20 07:43:00,
2013-09-20 00:59:00,42.3,33.6,29.83,SSE,157,0.0,-999.0,71,-99.99,,,0.00,Acu-Link.com,2013-09-20 07:59:00,
2013-09-20 01:16:00,42.1,34.1,29.84,SSE,157,0.0,-999.0,73,-99.99,,,0.00,Acu-Link.com,2013-09-20 08:16:00,
2013-09-20 01:31:00,41.9,34.2,29.84,SSE,157,0.0,-999.0,74,-99.99,,,0.00,Acu-Link.com,2013-09-20 08:31:00,
2013-09-20 01:46:00,41.7,34.0,29.84,SSE,157,0.0,-999.0,74,-99.99,,,0.00,Acu-Link.com,2013-09-20 08:46:00,
2013-09-20 02:02:00,41.2,33.2,29.84,NW,315,0.0,-999.0,73,-99.99,,,0.00,Acu-Link.com,2013-09-20 09:02:00,
2013-09-20 02:17:00,41.2,33.6,29.83,SSE,157,0.0,-999.0,74,-99.99,,,0.00,Acu-Link.com,2013-09-20 09:17:00,
2013-09-20 02:32:00,40.8,32.8,29.83,SSE,157,0.0,-999.0,73,-99.99,,,0.00,Acu-Link.com,2013-09-20 09:32:00,
2013-09-20 02:47:00,40.6,33.6,29.82,SSE,157,0.0,-999.0,76,-99.99,,,0.00,Acu-Link.com,2013-09-20 09:47:00,
2013-09-20 03:02:00,39.7,33.4,29.81,SSE,157,0.0,-999.0,78,-99.99,,,0.00,Acu-Link.com,2013-09-20 10:02:00,
2013-09-20 03:17:00,38.8,33.2,29.81,NNW,337,0.0,-999.0,80,-99.99,,,0.00,Acu-Link.com,2013-09-20 10:17:00,
2013-09-20 03:33:00,39.0,33.7,29.81,NNW,337,0.0,-999.0,81,-99.99,,,0.00,Acu-Link.com,2013-09-20 10:33:00,
2013-09-20 03:48:00,38.8,32.9,29.81,NNW,337,0.0,-999.0,79,-99.99,,,0.00,Acu-Link.com,2013-09-20 10:48:00,
2013-09-20 04:03:00,38.5,33.2,29.81,NNW,337,0.0,-999.0,81,-99.99,,,0.00,Acu-Link.com,2013-09-20 11:03:00,
2013-09-20 04:18:00,37.9,32.3,29.81,NNW,337,0.0,-999.0,80,-99.99,,,0.00,Acu-Link.com,2013-09-20 11:18:00,
2013-09-20 04:34:00,37.9,33.2,29.80,NNW,337,0.0,-999.0,83,-99.99,,,0.00,Acu-Link.com,2013-09-20 11:34:00,
2013-09-20 04:49:00,37.8,32.8,29.81,NNW,337,0.0,-999.0,82,-99.99,,,0.00,Acu-Link.com,2013-09-20 11:49:00,
2013-09-20 05:05:00,37.4,32.7,29.80,SE,135,0.0,-999.0,83,-99.99,,,0.00,Acu-Link.com,2013-09-20 12:05:00,
2013-09-20 05:35:00,37.0,32.0,29.79,SW,225,0.0,-999.0,82,-99.99,,,0.00,Acu-Link.com,2013-09-20 12:35:00,
2013-09-20 05:51:00,36.7,32.0,29.79,WNW,292,0.0,-999.0,83,-99.99,,,0.00,Acu-Link.com,2013-09-20 12:51:00,
2013-09-20 06:06:00,36.5,31.5,29.80,NE,45,0.0,-999.0,82,-99.99,,,0.00,Acu-Link.com,2013-09-20 13:06:00,
2013-09-20 06:21:00,36.9,33.1,29.79,SSE,157,0.0,-999.0,86,-99.99,,,0.00,Acu-Link.com,2013-09-20 13:21:00,
2013-09-20 06:37:00,36.7,32.9,29.78,SW,225,0.0,-999.0,86,-99.99,,,0.00,Acu-Link.com,2013-09-20 13:37:00,
2013-09-20 06:52:00,36.7,32.6,29.78,West,270,0.0,-999.0,85,-99.99,,,0.00,Acu-Link.com,2013-09-20 13:52:00,
2013-09-20 07:07:00,36.3,32.2,29.78,West,270,0.0,-999.0,85,-99.99,,,0.00,Acu-Link.com,2013-09-20 14:07:00,
2013-09-20 07:22:00,37.4,33.9,29.78,ESE,112,0.0,-999.0,87,-99.99,,,0.00,Acu-Link.com,2013-09-20 14:22:00,
2013-09-20 07:38:00,40.6,34.9,29.77,ESE,112,1.1,-999.0,80,-99.99,,,0.00,Acu-Link.com,2013-09-20 14:38:00,
2013-09-20 07:53:00,43.7,36.0,29.77,ENE,67,0.0,-999.0,74,-99.99,,,0.00,Acu-Link.com,2013-09-20 14:53:00,
2013-09-20 08:08:00,47.7,37.7,29.77,East,90,2.2,-999.0,68,-99.99,,,0.00,Acu-Link.com,2013-09-20 15:08:00,
2013-09-20 08:24:00,48.7,38.6,29.77,West,270,0.0,-999.0,68,-99.99,,,0.00,Acu-Link.com,2013-09-20 15:24:00,
2013-09-20 08:39:00,48.4,38.7,29.76,East,90,2.7,-999.0,69,-99.99,,,0.00,Acu-Link.com,2013-09-20 15:39:00,
2013-09-20 08:54:00,51.4,40.4,29.76,East,90,1.7,-999.0,66,-99.99,,,0.00,Acu-Link.com,2013-09-20 15:54:00,
2013-09-20 09:09:00,53.2,41.3,29.75,East,90,2.7,-999.0,64,-99.99,,,0.00,Acu-Link.com,2013-09-20 16:09:00,
2013-09-20 09:25:00,55.0,42.2,29.74,WNW,292,0.0,-999.0,62,-99.99,,,0.00,Acu-Link.com,2013-09-20 16:25:00,
2013-09-20 09:40:00,58.8,44.1,29.73,ESE,112,1.7,-999.0,58,-99.99,,,0.00,Acu-Link.com,2013-09-20 16:40:00,
2013-09-20 09:55:00,60.4,45.1,29.72,South,180,0.0,-999.0,57,-99.99,,,0.00,Acu-Link.com,2013-09-20 16:55:00,
2013-09-20 10:10:00,61.0,44.7,29.71,ESE,112,1.7,-999.0,55,-99.99,,,0.00,Acu-Link.com,2013-09-20 17:10:00,
2013-09-20 10:25:00,63.1,45.7,29.70,NW,315,2.2,-999.0,53,-99.99,,,0.00,Acu-Link.com,2013-09-20 17:25:00,
2013-09-20 10:41:00,64.4,45.9,29.69,NW,315,2.7,-999.0,51,-99.99,,,0.00,Acu-Link.com,2013-09-20 17:41:00,
2013-09-20 10:56:00,65.8,46.6,29.68,NE,45,5.3,-999.0,50,-99.99,,,0.00,Acu-Link.com,2013-09-20 17:56:00,
2013-09-20 11:11:00,67.3,46.4,29.67,ESE,112,3.7,-999.0,47,-99.99,,,0.00,Acu-Link.com,2013-09-20 18:11:00,
2013-09-20 11:27:00,68.5,46.9,29.66,NNW,337,1.7,-999.0,46,-99.99,,,0.00,Acu-Link.com,2013-09-20 18:27:00,
2013-09-20 11:42:00,69.1,46.9,29.65,ESE,112,1.7,-999.0,45,-99.99,,,0.00,Acu-Link.com,2013-09-20 18:42:00,
2013-09-20 11:57:00,69.8,46.3,29.65,SSE,157,3.2,-999.0,43,-99.99,,,0.00,Acu-Link.com,2013-09-20 18:57:00,
2013-09-20 12:12:00,70.7,47.1,29.63,NW,315,0.0,-999.0,43,-99.99,,,0.00,Acu-Link.com,2013-09-20 19:12:00,
2013-09-20 12:28:00,72.0,45.7,29.63,ESE,112,1.7,-999.0,39,-99.99,,,0.00,Acu-Link.com,2013-09-20 19:28:00,
2013-09-20 12:43:00,73.4,45.5,29.62,East,90,4.7,-999.0,37,-99.99,,,0.00,Acu-Link.com,2013-09-20 19:43:00,
2013-09-20 12:58:00,74.5,45.8,29.60,ENE,67,4.7,-999.0,36,-99.99,,,0.00,Acu-Link.com,2013-09-20 19:58:00,
2013-09-20 13:13:00,75.4,45.8,29.60,East,90,1.7,-999.0,35,-99.99,,,0.00,Acu-Link.com,2013-09-20 20:13:00,
2013-09-20 13:28:00,77.9,46.5,29.58,West,270,2.2,-999.0,33,-99.99,,,0.00,Acu-Link.com,2013-09-20 20:28:00,
2013-09-20 13:43:00,78.1,44.1,29.57,East,90,3.7,-999.0,30,-99.99,,,0.00,Acu-Link.com,2013-09-20 20:43:00,
2013-09-20 13:59:00,79.9,43.9,29.55,NE,45,1.1,-999.0,28,-99.99,,,0.00,Acu-Link.com,2013-09-20 20:59:00,
2013-09-20 14:14:00,80.1,45.0,29.55,West,270,3.2,-999.0,29,-99.99,,,0.00,Acu-Link.com,2013-09-20 21:14:00,
2013-09-20 14:29:00,79.5,43.5,29.54,ESE,112,2.2,-999.0,28,-99.99,,,0.00,Acu-Link.com,2013-09-20 21:29:00,
2013-09-20 14:45:00,80.8,44.6,29.53,West,270,1.7,-999.0,28,-99.99,,,0.00,Acu-Link.com,2013-09-20 21:45:00,
2013-09-20 15:00:00,81.9,44.6,29.52,NE,45,1.7,-999.0,27,-99.99,,,0.00,Acu-Link.com,2013-09-20 22:00:00,
2013-09-20 15:15:00,81.1,44.9,29.52,North,0,4.2,-999.0,28,-99.99,,,0.00,Acu-Link.com,2013-09-20 22:15:00,
2013-09-20 15:30:00,80.4,44.3,29.51,NNW,337,3.2,-999.0,28,-99.99,,,0.00,Acu-Link.com,2013-09-20 22:30:00,
2013-09-20 15:46:00,80.4,43.3,29.50,East,90,1.7,-999.0,27,-99.99,,,0.00,Acu-Link.com,2013-09-20 22:46:00,
2013-09-20 16:01:00,81.7,44.4,29.49,ESE,112,1.7,-999.0,27,-99.99,,,0.00,Acu-Link.com,2013-09-20 23:01:00,
2013-09-20 16:16:00,80.2,44.1,29.49,NW,315,1.7,-999.0,28,-99.99,,,0.00,Acu-Link.com,2013-09-20 23:16:00,
2013-09-20 16:32:00,79.3,44.3,29.48,ESE,112,0.0,-999.0,29,-99.99,,,0.00,Acu-Link.com,2013-09-20 23:32:00,
2013-09-20 16:47:00,78.6,43.7,29.47,NNW,337,1.1,-999.0,29,-99.99,,,0.00,Acu-Link.com,2013-09-20 23:47:00,
2013-09-20 17:02:00,78.6,43.7,29.46,East,90,2.7,-999.0,29,-99.99,,,0.00,Acu-Link.com,2013-09-21 00:02:00,
2013-09-20 17:17:00,78.1,44.1,29.45,ESE,112,1.7,-999.0,30,-99.99,,,0.00,Acu-Link.com,2013-09-21 00:17:00,
2013-09-20 17:32:00,77.4,44.4,29.45,WSW,247,1.1,-999.0,31,-99.99,,,0.00,Acu-Link.com,2013-09-21 00:32:00,
2013-09-20 17:48:00,75.7,44.5,29.44,WNW,292,0.0,-999.0,33,-99.99,,,0.00,Acu-Link.com,2013-09-21 00:48:00,
2013-09-20 18:03:00,74.7,45.2,29.44,West,270,0.0,-999.0,35,-99.99,,,0.00,Acu-Link.com,2013-09-21 01:03:00,
2013-09-20 18:18:00,73.4,45.5,29.44,NW,315,0.0,-999.0,37,-99.99,,,0.00,Acu-Link.com,2013-09-21 01:18:00,
2013-09-20 18:33:00,72.0,46.3,29.44,East,90,0.0,-999.0,40,-99.99,,,0.00,Acu-Link.com,2013-09-21 01:33:00,
2013-09-20 18:49:00,70.7,47.1,29.43,SSE,157,0.0,-999.0,43,-99.99,,,0.00,Acu-Link.com,2013-09-21 01:49:00,
2013-09-20 19:04:00,68.9,47.8,29.43,ESE,112,0.0,-999.0,47,-99.99,,,0.00,Acu-Link.com,2013-09-21 02:04:00,
2013-09-20 19:19:00,66.9,43.7,29.44,East,90,0.0,-999.0,43,-99.99,,,0.00,Acu-Link.com,2013-09-21 02:19:00,
2013-09-20 19:34:00,65.5,46.9,29.44,East,90,0.0,-999.0,51,-99.99,,,0.00,Acu-Link.com,2013-09-21 02:34:00,
2013-09-20 19:50:00,63.9,44.9,29.44,East,90,0.0,-999.0,50,-99.99,,,0.00,Acu-Link.com,2013-09-21 02:50:00,
2013-09-20 20:05:00,62.4,45.0,29.44,South,180,0.0,-999.0,53,-99.99,,,0.00,Acu-Link.com,2013-09-21 03:05:00,
2013-09-20 20:20:00,61.3,44.5,29.43,West,270,0.0,-999.0,54,-99.99,,,0.00,Acu-Link.com,2013-09-21 03:20:00,
2013-09-20 20:36:00,59.9,42.7,29.43,West,270,0.0,-999.0,53,-99.99,,,0.00,Acu-Link.com,2013-09-21 03:36:00,
2013-09-20 20:51:00,58.8,42.7,29.43,SE,135,0.0,-999.0,55,-99.99,,,0.00,Acu-Link.com,2013-09-21 03:51:00,
2013-09-20 21:06:00,57.7,41.6,29.43,WNW,292,0.0,-999.0,55,-99.99,,,0.00,Acu-Link.com,2013-09-21 04:06:00,
2013-09-20 21:22:00,57.0,41.0,29.43,NW,315,0.0,-999.0,55,-99.99,,,0.00,Acu-Link.com,2013-09-21 04:22:00,
2013-09-20 21:37:00,56.3,40.3,29.43,NW,315,0.0,-999.0,55,-99.99,,,0.00,Acu-Link.com,2013-09-21 04:37:00,
2013-09-20 21:52:00,55.8,40.3,29.43,ESE,112,0.0,-999.0,56,-99.99,,,0.00,Acu-Link.com,2013-09-21 04:52:00,
2013-09-20 22:07:00,55.4,40.9,29.43,WSW,247,0.0,-999.0,58,-99.99,,,0.00,Acu-Link.com,2013-09-21 05:07:00,
2013-09-20 22:23:00,54.5,39.6,29.43,WSW,247,0.0,-999.0,57,-99.99,,,0.00,Acu-Link.com,2013-09-21 05:23:00,
2013-09-20 22:38:00,53.8,40.2,29.42,ESE,112,0.0,-999.0,60,-99.99,,,0.00,Acu-Link.com,2013-09-21 05:38:00,
2013-09-20 22:53:00,53.1,40.0,29.42,ESE,112,0.0,-999.0,61,-99.99,,,0.00,Acu-Link.com,2013-09-21 05:53:00,
2013-09-20 23:09:00,52.0,39.0,29.42,West,270,0.0,-999.0,61,-99.99,,,0.00,Acu-Link.com,2013-09-21 06:09:00,
2013-09-20 23:24:00,51.3,39.1,29.42,West,270,0.0,-999.0,63,-99.99,,,0.00,Acu-Link.com,2013-09-21 06:24:00,
2013-09-20 23:39:00,50.7,39.8,29.42,East,90,0.0,-999.0,66,-99.99,,,0.00,Acu-Link.com,2013-09-21 06:39:00,
2013-09-20 23:55:00,50.0,37.9,29.42,West,270,0.0,-999.0,63,-99.99,,,0.00,Acu-Link.com,2013-09-21 06:55:00,